Time;durP1;ratioP1;P1;durP2;ratioP2;P2;SDS_P1;SDS_P2;PMS_P1;PMS_P2;Temp;Humidity;BMP_temperature;BMP_pressure;BME280_temperature;BME280_humidity;BME280_pressure;Samples;Min_cycle;Max_cycle;Signal;HPM_P1;HPM_P2
2022/04/17 00:06:56;;;;;;;4.82;1.90;;;9.40;66.30;;;;;;6753596;88;20753;-79
2022/04/17 00:16:57;;;;;;;3.12;1.60;;;9.20;67.70;;;;;;6741418;88;20217;-79
2022/04/17 00:26:59;;;;;;;2.75;1.77;;;9.20;67.60;;;;;;6741769;88;20641;-79
2022/04/17 00:37:00;;;;;;;4.70;1.85;;;9.10;68.40;;;;;;6740553;88;20179;-78
2022/04/17 00:47:01;;;;;;;6.78;2.15;;;9.00;69.50;;;;;;6740285;88;20206;-77
2022/04/17 00:57:02;;;;;;;6.35;2.12;;;8.90;69.80;;;;;;6740059;88;20775;-77
2022/04/17 01:07:04;;;;;;;4.62;1.80;;;8.70;70.60;;;;;;6738938;88;20209;-77
2022/04/17 01:17:05;;;;;;;3.22;1.80;;;8.60;71.40;;;;;;6651910;89;20184;-77
2022/04/17 01:27:06;;;;;;;4.37;1.83;;;8.40;72.20;;;;;;6739040;88;20180;-77
2022/04/17 01:37:06;;;;;;;3.53;1.93;;;8.50;72.10;;;;;;6741154;88;20722;-77
2022/04/17 01:47:07;;;;;;;4.17;2.00;;;8.40;72.40;;;;;;6770407;88;20504;-78
2022/04/17 02:07:11;;;;;;;4.05;2.17;;;8.30;73.60;;;;;;6766703;88;20640;-80
2022/04/17 02:17:11;;;;;;;4.30;1.80;;;8.20;74.20;;;;;;6765272;88;20224;-80
2022/04/17 02:27:11;;;;;;;3.70;2.05;;;8.20;75.10;;;;;;6748761;88;20187;-80
2022/04/17 02:37:13;;;;;;;4.40;2.00;;;7.90;76.30;;;;;;6760679;88;20248;-80
2022/04/17 02:48:14;;;;;;;5.50;2.00;;;7.30;78.90;;;;;;6762282;88;20190;-80
2022/04/17 02:57:43;;;;;;;4.37;2.12;;;7.20;80.00;;;;;;6700852;88;20191;-80
2022/04/17 03:07:44;;;;;;;3.67;1.90;;;7.10;82.40;;;;;;6693205;88;20762;-80
2022/04/17 03:17:44;;;;;;;7.07;2.07;;;7.00;84.30;;;;;;6765698;88;20623;-79
2022/04/17 03:27:46;;;;;;;2.70;1.80;;;7.00;85.20;;;;;;6766406;88;20500;-80
2022/04/17 03:37:47;;;;;;;2.50;1.67;;;6.90;85.90;;;;;;6678747;88;20202;-79
2022/04/17 03:47:47;;;;;;;3.62;2.03;;;7.10;85.20;;;;;;6763999;88;20196;-80
2022/04/17 03:57:48;;;;;;;3.95;1.85;;;6.80;89.00;;;;;;6761748;88;20958;-80
2022/04/17 04:07:49;;;;;;;3.35;1.92;;;6.40;91.80;;;;;;6758380;88;20222;-80
2022/04/17 04:17:50;;;;;;;3.03;2.00;;;6.10;94.00;;;;;;6763823;88;20233;-80
2022/04/17 04:38:09;;;;;;;3.80;1.80;;;5.80;98.30;;;;;;6764596;88;20559;-80
2022/04/17 04:48:10;;;;;;;7.80;2.40;;;5.80;99.90;;;;;;6764844;88;20206;-80
2022/04/17 04:58:10;;;;;;;3.92;2.00;;;5.90;99.90;;;;;;6766160;88;20200;-80
2022/04/17 05:08:11;;;;;;;4.80;2.12;;;5.80;99.90;;;;;;6692809;88;20210;-80
2022/04/17 05:18:11;;;;;;;3.58;2.17;;;5.60;99.90;;;;;;6693777;88;20239;-80
2022/04/17 05:28:12;;;;;;;4.65;2.62;;;5.40;99.90;;;;;;6763359;88;20280;-79
2022/04/17 05:38:13;;;;;;;3.37;2.30;;;5.60;99.90;;;;;;6765104;88;20737;-82
2022/04/17 05:48:14;;;;;;;4.05;2.40;;;6.00;99.90;;;;;;6771286;88;20606;-80
2022/04/17 05:58:14;;;;;;;3.45;2.10;;;6.40;99.90;;;;;;6766721;88;20192;-80
2022/04/17 06:08:15;;;;;;;3.33;1.92;;;6.70;99.90;;;;;;6766711;88;20203;-80
2022/04/17 06:18:15;;;;;;;4.75;2.10;;;7.10;99.90;;;;;;6768373;87;20704;-80
2022/04/17 06:28:16;;;;;;;4.05;2.15;;;7.40;98.50;;;;;;6770461;88;20229;-80
2022/04/17 06:38:17;;;;;;;3.85;1.95;;;7.80;98.80;;;;;;6770029;88;20685;-81
2022/04/17 06:48:21;;;;;;;4.78;2.00;;;8.30;98.20;;;;;;6771201;88;20187;-80
2022/04/17 06:58:22;;;;;;;3.05;1.70;;;8.60;97.50;;;;;;6683113;88;20769;-81
2022/04/17 07:08:22;;;;;;;3.25;1.48;;;9.10;95.10;;;;;;6771279;88;20236;-80
2022/04/17 07:18:23;;;;;;;3.15;1.48;;;9.30;93.70;;;;;;6772841;87;20180;-80
2022/04/17 07:28:23;;;;;;;4.18;1.60;;;10.00;93.20;;;;;;6683566;89;20224;-81
2022/04/17 07:38:24;;;;;;;4.60;2.05;;;10.30;91.70;;;;;;6753712;88;20413;-81
2022/04/17 07:48:24;;;;;;;2.62;1.30;;;10.60;90.80;;;;;;6770744;88;20205;-80
2022/04/17 08:08:28;;;;;;;3.20;1.58;;;11.20;87.50;;;;;;6729924;88;20224;-77
2022/04/17 08:18:29;;;;;;;4.05;1.70;;;11.60;87.30;;;;;;6666139;89;20305;-77
2022/04/17 08:28:30;;;;;;;2.75;1.40;;;12.00;83.80;;;;;;6740916;88;20689;-77
2022/04/17 08:38:30;;;;;;;3.50;1.40;;;12.50;82.60;;;;;;6753538;88;20645;-77
2022/04/17 08:48:35;;;;;;;3.55;1.60;;;12.80;80.40;;;;;;6736992;88;20245;-79
2022/04/17 08:58:36;;;;;;;2.95;1.20;;;12.80;79.70;;;;;;6680415;88;20199;-78
2022/04/17 09:08:55;;;;;;;3.40;1.40;;;13.40;78.90;;;;;;6675912;89;20228;-78
2022/04/17 09:18:58;;;;;;;5.32;1.52;;;14.20;77.80;;;;;;6676187;89;20476;-78
2022/04/17 09:28:59;;;;;;;2.87;1.30;;;14.20;75.60;;;;;;6760584;88;20255;-78
2022/04/17 09:39:15;;;;;;;2.58;1.33;;;14.20;76.00;;;;;;6730139;88;20233;-77
2022/04/17 09:49:16;;;;;;;2.53;1.30;;;15.00;74.70;;;;;;6667168;88;20320;-79
2022/04/17 09:59:18;;;;;;;2.90;1.23;;;16.00;73.40;;;;;;6671672;88;20218;-78
2022/04/17 10:09:20;;;;;;;3.10;1.30;;;16.40;74.10;;;;;;6685629;88;20188;-78
2022/04/17 10:19:21;;;;;;;2.40;1.02;;;17.60;69.90;;;;;;6762960;88;20330;-78
2022/04/17 10:29:34;;;;;;;3.03;1.10;;;18.70;66.30;;;;;;6665928;89;20192;-78
2022/04/17 10:39:38;;;;;;;3.87;0.98;;;18.70;65.60;;;;;;6733264;88;20172;-78
2022/04/17 10:49:53;;;;;;;2.10;1.00;;;18.70;62.20;;;;;;6665721;88;20256;-77
2022/04/17 11:00:26;;;;;;;2.77;1.10;;;19.00;61.00;;;;;;6664644;89;20217;-77
2022/04/17 11:10:31;;;;;;;2.85;0.98;;;18.00;60.80;;;;;;6665390;88;20943;-78
2022/04/17 11:20:32;;;;;;;;;;;19.30;60.40;;;;;;6753993;88;20249;-78
2022/04/17 11:30:34;;;;;;;2.40;1.03;;;18.30;59.70;;;;;;6753390;88;20044;-78
2022/04/17 11:40:36;;;;;;;2.83;1.20;;;19.70;59.40;;;;;;6664707;88;20187;-77
2022/04/17 11:50:38;;;;;;;2.60;1.00;;;19.20;57.90;;;;;;6760345;88;20315;-78
2022/04/17 12:00:39;;;;;;;2.00;1.00;;;20.10;56.40;;;;;;6756734;87;20251;-78
2022/04/17 12:10:42;;;;;;;1.95;0.80;;;19.90;56.40;;;;;;6673133;89;20179;-78
2022/04/17 12:20:43;;;;;;;1.75;0.90;;;21.40;57.30;;;;;;6761275;88;20187;-78
2022/04/17 12:30:44;;;;;;;1.93;1.13;;;21.60;53.40;;;;;;6749520;88;20263;-78
2022/04/17 12:40:44;;;;;;;1.80;0.80;;;20.50;53.40;;;;;;6671875;89;20195;-78
2022/04/17 12:50:55;;;;;;;1.73;0.88;;;20.90;52.80;;;;;;6736213;88;20750;-78
2022/04/17 13:00:57;;;;;;;3.20;0.90;;;22.40;53.60;;;;;;6687372;88;20235;-78
2022/04/17 13:10:58;;;;;;;2.65;0.93;;;22.30;49.90;;;;;;6672522;88;20648;-78
2022/04/17 13:20:59;;;;;;;2.53;0.97;;;22.20;51.80;;;;;;6672848;88;20264;-78
2022/04/17 13:30:59;;;;;;;1.87;0.88;;;22.40;50.60;;;;;;6671882;88;20212;-78
2022/04/17 13:41:00;;;;;;;2.40;0.93;;;21.90;50.20;;;;;;6672516;88;20308;-78
2022/04/17 13:51:05;;;;;;;1.98;0.90;;;22.80;49.20;;;;;;6755591;88;20636;-77
2022/04/17 14:12:11;;;;;;;1.77;0.70;;;21.60;51.00;;;;;;6764986;88;20193;-82
2022/04/17 14:22:11;;;;;;;2.65;0.80;;;22.30;49.40;;;;;;6774379;88;20694;-82
2022/04/17 14:32:12;;;;;;;2.55;0.77;;;20.80;49.50;;;;;;6772461;88;20221;-82
2022/04/17 14:42:12;;;;;;;2.00;0.60;;;21.40;50.20;;;;;;6773917;88;20215;-81
2022/04/17 14:52:13;;;;;;;2.00;0.82;;;21.30;49.20;;;;;;6774317;88;20237;-81
2022/04/17 15:02:14;;;;;;;1.80;0.80;;;20.80;48.60;;;;;;6772457;87;20272;-81
2022/04/17 15:12:14;;;;;;;1.55;0.80;;;20.60;46.60;;;;;;6772700;88;20354;-82
2022/04/17 15:22:15;;;;;;;2.08;0.70;;;20.80;48.20;;;;;;6773791;88;20293;-80
2022/04/17 15:32:16;;;;;;;1.73;0.80;;;20.70;47.00;;;;;;6774127;88;20215;-82
2022/04/17 15:42:16;;;;;;;2.42;0.70;;;20.50;46.00;;;;;;6769053;88;20735;-81
2022/04/17 15:52:17;;;;;;;1.87;0.70;;;20.60;46.50;;;;;;6773220;88;20673;-82
2022/04/17 16:02:19;;;;;;;1.87;0.70;;;20.20;46.00;;;;;;6773331;87;20508;-81
2022/04/17 16:12:20;;;;;;;2.28;0.62;;;20.10;46.80;;;;;;6773238;88;20180;-80
2022/04/17 16:22:20;;;;;;;2.15;0.88;;;20.20;48.10;;;;;;6775112;87;20202;-82
2022/04/17 16:32:21;;;;;;;2.28;0.90;;;20.10;47.90;;;;;;6773828;88;20218;-82
2022/04/17 16:42:22;;;;;;;2.05;0.90;;;19.80;48.60;;;;;;6773723;88;20290;-81
2022/04/17 16:52:22;;;;;;;1.70;0.60;;;19.80;48.60;;;;;;6773898;88;20689;-81
2022/04/17 17:02:23;;;;;;;3.12;0.85;;;19.50;48.70;;;;;;6771809;87;20172;-81
2022/04/17 17:12:23;;;;;;;1.98;0.80;;;19.50;49.00;;;;;;6772519;88;20259;-81
2022/04/17 17:22:24;;;;;;;2.37;0.90;;;19.20;48.90;;;;;;6771634;88;20187;-81
2022/04/17 17:32:25;;;;;;;2.65;0.90;;;19.00;49.40;;;;;;6772987;88;20282;-81
2022/04/17 17:42:25;;;;;;;3.20;0.80;;;18.70;50.00;;;;;;6774607;88;20584;-82
2022/04/17 17:52:29;;;;;;;2.37;0.98;;;18.10;50.20;;;;;;6769768;88;20493;-81
2022/04/17 18:02:30;;;;;;;2.55;1.20;;;17.70;50.80;;;;;;6774182;87;20171;-82
2022/04/17 18:22:50;;;;;;;2.92;1.55;;;17.30;51.40;;;;;;6779073;88;20176;-81
2022/04/17 18:32:50;;;;;;;3.53;1.70;;;17.00;52.20;;;;;;6774272;88;20214;-82
2022/04/17 18:42:51;;;;;;;3.60;2.12;;;16.60;53.20;;;;;;6778261;88;20187;-81
2022/04/17 18:52:52;;;;;;;6.78;3.37;;;16.30;53.50;;;;;;6779177;87;20340;-82
2022/04/17 19:02:57;;;;;;;18.75;10.18;;;15.90;54.30;;;;;;6777322;88;20247;-82
2022/04/17 19:23:16;;;;;;;5.05;2.40;;;15.20;56.30;;;;;;6779667;88;20167;-82
2022/04/17 19:43:36;;;;;;;4.12;2.20;;;14.40;58.90;;;;;;6780676;87;20662;-80
2022/04/17 19:53:36;;;;;;;4.10;2.50;;;14.40;58.50;;;;;;6774939;88;20276;-81
2022/04/17 20:03:37;;;;;;;5.75;2.30;;;14.30;59.40;;;;;;6760139;76;20221;-80
2022/04/17 20:13:40;;;;;;;5.00;2.78;;;13.80;60.80;;;;;;6723304;88;20353;-78
2022/04/17 20:23:41;;;;;;;4.18;2.10;;;13.60;61.90;;;;;;6720827;88;20205;-78
2022/04/17 20:33:41;;;;;;;4.57;2.00;;;13.50;61.50;;;;;;6719690;88;20212;-77
2022/04/17 20:54:01;;;;;;;3.87;1.80;;;13.20;62.80;;;;;;6722099;88;20172;-79
2022/04/17 21:04:04;;;;;;;5.97;3.80;;;13.10;62.50;;;;;;6723047;88;20760;-77
2022/04/17 21:14:04;;;;;;;4.45;2.42;;;12.90;64.60;;;;;;6738109;88;20626;-78
2022/04/17 21:24:05;;;;;;;5.93;2.60;;;12.80;65.20;;;;;;6753486;88;20184;-78
2022/04/17 21:34:06;;;;;;;4.37;2.83;;;12.50;66.00;;;;;;6746010;88;20329;-78
2022/04/17 21:44:06;;;;;;;3.75;2.00;;;12.30;66.50;;;;;;6741393;88;20192;-77
2022/04/17 21:54:07;;;;;;;3.15;1.65;;;12.40;65.20;;;;;;6742944;88;20201;-78
2022/04/17 22:14:27;;;;;;;4.05;1.70;;;12.30;64.30;;;;;;6756279;88;20592;-78
2022/04/17 22:24:28;;;;;;;3.78;2.17;;;12.00;65.00;;;;;;6743327;88;20197;-79
2022/04/17 22:34:28;;;;;;;4.67;2.00;;;12.00;64.60;;;;;;6743343;88;20206;-78
2022/04/17 22:44:29;;;;;;;2.80;1.62;;;12.00;64.50;;;;;;6742506;88;20512;-78
2022/04/17 22:54:29;;;;;;;3.55;1.40;;;12.00;64.60;;;;;;6750791;88;20216;-78
2022/04/17 23:04:30;;;;;;;3.15;1.62;;;11.80;64.40;;;;;;6751616;88;20211;-79
2022/04/17 23:14:30;;;;;;;4.28;1.27;;;11.50;65.60;;;;;;6735174;88;20354;-78
2022/04/17 23:24:31;;;;;;;4.55;1.60;;;11.50;64.90;;;;;;6730469;88;20188;-78
2022/04/17 23:34:31;;;;;;;2.78;1.50;;;11.40;66.20;;;;;;6724007;88;20193;-79
2022/04/17 23:44:32;;;;;;;4.50;2.17;;;11.20;66.50;;;;;;6724318;88;20180;-79
2022/04/17 23:54:32;;;;;;;5.40;2.70;;;11.10;67.20;;;;;;6724904;88;20193;-78
